Time;durP1;ratioP1;P1;durP2;ratioP2;P2;SDS_P1;SDS_P2;PMS_P1;PMS_P2;Temp;Humidity;BMP_temperature;BMP_pressure;BME280_temperature;BME280_humidity;BME280_pressure;Samples;Min_cycle;Max_cycle;Signal;HPM_P1;HPM_P2
2024/04/06 00:02:15;;;;;;;20.20;4.55;;;12.00;99.90;;;;;;5041987;28;20525;-76
2024/04/06 00:04:41;;;;;;;19.67;4.55;;;12.00;99.90;;;;;;5047302;28;20060;-76
2024/04/06 00:07:07;;;;;;;14.35;4.05;;;12.00;99.90;;;;;;5050435;28;20036;-76
2024/04/06 00:09:33;;;;;;;16.50;3.97;;;12.00;99.90;;;;;;5048473;28;20048;-76
2024/04/06 00:11:59;;;;;;;16.45;4.32;;;12.00;99.90;;;;;;5042146;28;20045;-76
2024/04/06 00:14:24;;;;;;;12.32;3.83;;;12.00;99.90;;;;;;5047977;28;20068;-76
2024/04/06 00:16:50;;;;;;;16.95;4.45;;;12.00;99.90;;;;;;5054523;28;20037;-76
2024/04/06 00:19:15;;;;;;;12.38;4.18;;;12.00;99.90;;;;;;5052313;28;20037;-76
2024/04/06 00:21:41;;;;;;;15.15;4.35;;;12.00;99.90;;;;;;5045648;28;20555;-76
2024/04/06 00:24:07;;;;;;;14.98;4.70;;;12.00;99.90;;;;;;5048551;28;20615;-76
2024/04/06 00:26:32;;;;;;;13.70;4.07;;;12.20;99.90;;;;;;5053157;28;20041;-76
2024/04/06 00:28:58;;;;;;;12.35;4.88;;;12.00;99.90;;;;;;5050074;28;20658;-76
2024/04/06 00:31:23;;;;;;;17.85;4.45;;;12.00;99.90;;;;;;5044047;28;20091;-76
2024/04/06 00:33:49;;;;;;;20.75;4.18;;;12.00;99.90;;;;;;5051775;28;20119;-76
2024/04/06 00:36:14;;;;;;;14.88;4.60;;;12.00;99.90;;;;;;5051161;28;20041;-76
2024/04/06 00:38:40;;;;;;;18.15;4.47;;;12.10;99.90;;;;;;5052088;28;20584;-76
2024/04/06 00:41:06;;;;;;;16.10;4.45;;;12.00;99.90;;;;;;5047924;28;20044;-76
2024/04/06 00:43:32;;;;;;;16.10;4.32;;;12.00;99.90;;;;;;5053223;28;20052;-76
2024/04/06 00:45:58;;;;;;;15.25;4.38;;;12.00;99.90;;;;;;5047517;28;20120;-76
2024/04/06 00:48:23;;;;;;;15.18;4.25;;;12.10;99.90;;;;;;5051848;28;20117;-76
2024/04/06 00:50:51;;;;;;;15.13;4.40;;;12.10;99.90;;;;;;5045374;28;20154;-76
2024/04/06 00:53:17;;;;;;;13.90;4.15;;;12.10;99.90;;;;;;5050852;28;20406;-76
2024/04/06 00:55:43;;;;;;;17.52;4.28;;;12.10;99.90;;;;;;5066858;28;20037;-76
2024/04/06 00:58:09;;;;;;;13.68;4.10;;;12.20;99.90;;;;;;5042372;28;20034;-76
2024/04/06 01:00:34;;;;;;;17.60;4.82;;;12.20;99.90;;;;;;5040126;28;20116;-76
2024/04/06 01:03:00;;;;;;;17.58;4.53;;;12.30;99.90;;;;;;5050596;28;20045;-76
2024/04/06 01:05:25;;;;;;;16.90;4.85;;;12.20;99.90;;;;;;5051538;28;20036;-76
2024/04/06 01:07:51;;;;;;;12.25;3.60;;;12.20;99.90;;;;;;5043190;28;20040;-76
2024/04/06 01:10:17;;;;;;;14.85;4.07;;;12.20;99.90;;;;;;5052467;28;20055;-76
2024/04/06 01:12:43;;;;;;;16.70;4.93;;;12.20;99.90;;;;;;5047678;28;20046;-76
2024/04/06 01:15:09;;;;;;;16.02;4.60;;;12.20;99.90;;;;;;5043816;28;20112;-76
2024/04/06 01:17:35;;;;;;;15.20;4.40;;;12.20;99.90;;;;;;5042739;28;20120;-76
2024/04/06 01:20:00;;;;;;;16.05;4.55;;;12.20;99.90;;;;;;5046016;28;20041;-76
2024/04/06 01:22:26;;;;;;;19.08;4.60;;;12.20;99.90;;;;;;5047432;28;20099;-76
2024/04/06 01:24:51;;;;;;;18.73;4.50;;;12.20;99.90;;;;;;5047001;28;20120;-76
2024/04/06 01:27:17;;;;;;;11.70;4.07;;;12.20;99.90;;;;;;5046236;28;20049;-76
2024/04/06 01:29:43;;;;;;;16.30;5.00;;;12.30;99.90;;;;;;5051986;28;20052;-76
2024/04/06 01:32:08;;;;;;;20.73;5.00;;;12.30;99.90;;;;;;5047426;28;20090;-76
2024/04/06 01:34:34;;;;;;;15.68;4.72;;;12.20;99.90;;;;;;5037810;28;20402;-76
2024/04/06 01:36:59;;;;;;;18.20;4.38;;;12.20;99.90;;;;;;5046325;28;20040;-76
2024/04/06 01:39:25;;;;;;;15.05;4.38;;;12.30;99.90;;;;;;5051067;28;20048;-76
2024/04/06 01:41:51;;;;;;;13.15;4.55;;;12.20;99.90;;;;;;5041382;28;20116;-76
2024/04/06 01:44:16;;;;;;;21.20;5.13;;;12.20;99.90;;;;;;5046803;28;20059;-76
2024/04/06 01:46:42;;;;;;;15.88;4.45;;;12.30;99.90;;;;;;5051582;28;20045;-76
2024/04/06 01:49:07;;;;;;;13.55;4.32;;;12.20;99.90;;;;;;5044379;28;20033;-76
2024/04/06 01:51:33;;;;;;;17.70;4.70;;;12.30;99.90;;;;;;5040569;28;20045;-76
2024/04/06 01:53:59;;;;;;;13.93;4.38;;;12.30;99.90;;;;;;5046569;28;20421;-76
2024/04/06 01:56:26;;;;;;;12.90;4.50;;;12.20;99.90;;;;;;5050651;28;20052;-76
2024/04/06 01:58:52;;;;;;;15.38;5.60;;;12.20;99.90;;;;;;5050875;28;20507;-76
2024/04/06 02:01:17;;;;;;;17.27;5.45;;;12.30;99.90;;;;;;5047783;28;20033;-76
2024/04/06 02:03:43;;;;;;;19.17;5.20;;;12.30;99.90;;;;;;5048850;28;20053;-76
2024/04/06 02:06:09;;;;;;;16.73;5.13;;;12.20;99.90;;;;;;5052447;28;20047;-77
2024/04/06 02:08:38;;;;;;;16.27;5.68;;;12.30;99.90;;;;;;5049613;28;20045;-76
2024/04/06 02:11:04;;;;;;;17.50;5.57;;;12.20;99.90;;;;;;5051037;28;20052;-76
2024/04/06 02:13:30;;;;;;;16.52;6.50;;;12.30;99.90;;;;;;5050319;28;20059;-76
2024/04/06 02:15:56;;;;;;;14.73;5.72;;;12.30;99.90;;;;;;5042514;28;20036;-76
2024/04/06 02:18:22;;;;;;;13.95;5.20;;;12.20;99.90;;;;;;5043035;28;20045;-76
2024/04/06 02:20:48;;;;;;;16.35;5.63;;;12.20;99.90;;;;;;5047909;28;20098;-76
2024/04/06 02:23:14;;;;;;;19.00;5.63;;;12.30;99.90;;;;;;5044580;28;20120;-76
2024/04/06 02:25:40;;;;;;;17.10;5.93;;;12.30;99.90;;;;;;5048108;28;20068;-76
2024/04/06 02:28:05;;;;;;;17.67;6.22;;;12.20;99.90;;;;;;5052182;28;20055;-76
2024/04/06 02:30:34;;;;;;;15.95;6.32;;;12.30;99.90;;;;;;5046234;28;20037;-76
2024/04/06 02:32:59;;;;;;;13.88;5.70;;;12.20;99.90;;;;;;5054852;28;20045;-76
2024/04/06 02:35:25;;;;;;;13.50;6.57;;;12.30;99.90;;;;;;5041730;28;20045;-76
2024/04/06 02:37:51;;;;;;;13.18;6.03;;;12.20;99.90;;;;;;5041980;28;20086;-76
2024/04/06 02:40:17;;;;;;;17.15;6.40;;;12.20;99.90;;;;;;5041754;28;20045;-76
2024/04/06 02:42:43;;;;;;;15.73;6.82;;;12.20;99.90;;;;;;5048549;28;20053;-76
2024/04/06 02:45:09;;;;;;;18.27;6.72;;;12.30;99.90;;;;;;5043782;28;20041;-76
2024/04/06 02:47:34;;;;;;;14.68;6.55;;;12.30;99.90;;;;;;5043515;28;20053;-76
2024/04/06 02:50:00;;;;;;;14.65;6.53;;;12.20;99.90;;;;;;5044671;28;20487;-76
2024/04/06 02:52:26;;;;;;;14.05;6.93;;;12.40;99.90;;;;;;5042778;28;20098;-76
2024/04/06 02:54:52;;;;;;;15.45;6.47;;;12.20;99.90;;;;;;5049557;28;20041;-76
2024/04/06 02:57:20;;;;;;;13.55;6.32;;;12.30;99.90;;;;;;5048528;28;20047;-76
2024/04/06 02:59:47;;;;;;;18.00;6.72;;;12.30;99.90;;;;;;5035933;28;20036;-76
2024/04/06 03:02:13;;;;;;;12.75;7.13;;;12.30;99.90;;;;;;5038171;28;20045;-76
2024/04/06 03:04:40;;;;;;;17.58;7.43;;;12.30;99.90;;;;;;5039977;28;20095;-76
2024/04/06 03:07:05;;;;;;;20.48;8.18;;;12.30;99.90;;;;;;5039516;28;20128;-76
2024/04/06 03:09:33;;;;;;;18.02;6.97;;;12.30;99.90;;;;;;5058552;28;20117;-76
2024/04/06 03:11:58;;;;;;;17.95;7.18;;;12.40;99.90;;;;;;5049991;28;20211;-76
2024/04/06 03:14:24;;;;;;;16.05;8.10;;;12.20;99.90;;;;;;5049544;28;20124;-76
2024/04/06 03:16:50;;;;;;;12.57;7.63;;;12.30;99.90;;;;;;5044006;28;20119;-76
2024/04/06 03:19:15;;;;;;;15.02;7.50;;;12.30;99.90;;;;;;5049716;28;20116;-76
2024/04/06 03:21:41;;;;;;;15.23;7.78;;;12.20;99.90;;;;;;5047232;28;20044;-76
2024/04/06 03:24:06;;;;;;;15.02;7.68;;;12.30;99.90;;;;;;5038786;28;20072;-76
2024/04/06 03:26:33;;;;;;;15.15;7.38;;;12.30;99.90;;;;;;5040178;28;20115;-76
2024/04/06 03:28:59;;;;;;;14.18;7.90;;;12.30;99.90;;;;;;5043756;28;20053;-77
2024/04/06 03:31:24;;;;;;;16.58;7.90;;;12.30;99.90;;;;;;5040379;28;20092;-77
2024/04/06 03:33:50;;;;;;;16.23;7.63;;;12.20;99.90;;;;;;5039125;28;20466;-77
2024/04/06 03:36:16;;;;;;;12.35;7.90;;;12.20;99.90;;;;;;5049813;28;20040;-77
2024/04/06 03:38:42;;;;;;;18.98;7.60;;;12.20;99.90;;;;;;5048753;28;20523;-76
2024/04/06 03:41:07;;;;;;;13.05;6.68;;;12.20;99.90;;;;;;5045884;28;20044;-76
2024/04/06 03:43:33;;;;;;;19.90;8.52;;;12.20;99.90;;;;;;5040664;28;20048;-76
2024/04/06 03:45:58;;;;;;;14.15;7.80;;;12.10;99.90;;;;;;5050041;28;20434;-76
2024/04/06 03:48:24;;;;;;;12.75;7.32;;;12.10;99.90;;;;;;5048339;28;20039;-76
2024/04/06 03:50:50;;;;;;;13.25;7.75;;;12.20;99.90;;;;;;5045966;28;20037;-77
2024/04/06 03:53:32;;;;;;;16.63;8.55;;;12.20;99.90;;;;;;5048433;28;20048;-76
2024/04/06 03:55:57;;;;;;;16.73;7.95;;;12.10;99.90;;;;;;5043543;28;20033;-76
2024/04/06 03:58:23;;;;;;;10.35;7.20;;;12.10;99.90;;;;;;5042071;28;20037;-77
2024/04/06 04:00:49;;;;;;;15.35;7.65;;;12.20;99.90;;;;;;5041024;28;20128;-77
2024/04/06 04:03:14;;;;;;;14.60;7.20;;;12.10;99.90;;;;;;5048620;28;20127;-77
2024/04/06 04:05:40;;;;;;;12.07;7.28;;;12.30;99.90;;;;;;5049562;28;20044;-77
2024/04/06 04:08:06;;;;;;;14.85;7.47;;;12.30;99.90;;;;;;5045440;28;20060;-77
2024/04/06 04:10:31;;;;;;;13.75;7.05;;;12.30;99.90;;;;;;5047431;28;20041;-77
2024/04/06 04:13:00;;;;;;;16.90;7.30;;;12.40;99.90;;;;;;5037609;28;20047;-77
2024/04/06 04:15:25;;;;;;;16.40;6.35;;;12.50;99.90;;;;;;5045733;28;20421;-77
2024/04/06 04:17:51;;;;;;;16.38;6.50;;;12.40;99.90;;;;;;5043576;28;20155;-77
2024/04/06 04:20:16;;;;;;;14.75;6.88;;;12.40;99.90;;;;;;5045737;28;20040;-76
2024/04/06 04:22:42;;;;;;;15.73;7.15;;;12.40;99.90;;;;;;5046489;28;20057;-76
2024/04/06 04:25:08;;;;;;;12.32;6.85;;;12.50;99.90;;;;;;5039976;28;20041;-76
2024/04/06 04:27:33;;;;;;;15.77;7.18;;;12.50;99.90;;;;;;5047172;28;20072;-76
2024/04/06 04:29:59;;;;;;;13.48;6.25;;;12.50;99.90;;;;;;5038450;28;20037;-77
2024/04/06 04:32:25;;;;;;;15.75;6.97;;;12.50;99.90;;;;;;5046986;28;20041;-77
2024/04/06 04:34:50;;;;;;;18.83;6.70;;;12.50;99.90;;;;;;5028560;28;20037;-77
2024/04/06 04:37:16;;;;;;;16.33;5.57;;;12.50;99.90;;;;;;5048868;28;20151;-77
2024/04/06 04:39:42;;;;;;;13.13;5.75;;;12.50;99.90;;;;;;5048982;28;21220;-77
2024/04/06 04:42:08;;;;;;;14.13;6.15;;;12.60;99.90;;;;;;5046178;28;20045;-77
2024/04/06 04:44:34;;;;;;;11.80;6.00;;;12.50;99.90;;;;;;5047079;28;20456;-76
2024/04/06 04:47:00;;;;;;;19.45;6.40;;;12.50;99.90;;;;;;5045079;28;20036;-77
2024/04/06 04:49:25;;;;;;;14.50;5.15;;;12.50;99.90;;;;;;5046525;28;20029;-77
2024/04/06 04:51:51;;;;;;;17.80;5.43;;;12.50;99.90;;;;;;5032324;28;20045;-77
2024/04/06 04:54:17;;;;;;;15.02;5.55;;;12.50;99.90;;;;;;5046334;28;20045;-76
2024/04/06 04:56:43;;;;;;;13.55;5.18;;;12.40;99.90;;;;;;5047582;28;20546;-76
2024/04/06 04:59:09;;;;;;;13.80;5.70;;;12.40;99.90;;;;;;5048766;28;20170;-76
2024/04/06 05:01:34;;;;;;;12.82;5.43;;;12.50;99.90;;;;;;5053173;28;20398;-76
2024/04/06 05:04:00;;;;;;;11.35;5.30;;;12.40;99.90;;;;;;5051112;28;20048;-76
2024/04/06 05:06:26;;;;;;;14.85;5.63;;;12.40;99.90;;;;;;5046694;28;20489;-77
2024/04/06 05:08:51;;;;;;;13.95;5.47;;;12.40;99.90;;;;;;5051030;28;20059;-76
2024/04/06 05:11:17;;;;;;;15.73;5.60;;;12.40;99.90;;;;;;5046746;28;20051;-77
2024/04/06 05:13:43;;;;;;;11.93;4.72;;;12.50;99.90;;;;;;5043831;28;20041;-76
2024/04/06 05:16:08;;;;;;;10.85;4.78;;;12.40;99.90;;;;;;5050537;28;20033;-76
2024/04/06 05:18:34;;;;;;;9.77;5.07;;;12.40;99.90;;;;;;5031059;28;20115;-76
2024/04/06 05:21:01;;;;;;;12.48;4.95;;;12.30;99.90;;;;;;5044960;28;20025;-77
2024/04/06 05:23:27;;;;;;;14.93;4.60;;;12.30;99.90;;;;;;5051454;28;20127;-77
2024/04/06 05:25:54;;;;;;;13.30;4.90;;;12.40;99.90;;;;;;5049085;28;20041;-77
2024/04/06 05:28:21;;;;;;;15.70;5.50;;;12.40;99.90;;;;;;5045160;28;20092;-77
2024/04/06 05:30:48;;;;;;;14.63;5.45;;;12.40;99.90;;;;;;5051033;28;20098;-77
2024/04/06 05:33:15;;;;;;;10.30;5.13;;;12.40;99.90;;;;;;5049609;28;20055;-77
2024/04/06 05:35:45;;;;;;;12.95;4.47;;;12.40;99.90;;;;;;5065799;28;20390;-77
2024/04/06 05:38:11;;;;;;;9.50;4.32;;;12.40;99.90;;;;;;5052061;28;20044;-77
2024/04/06 05:40:41;;;;;;;11.48;4.80;;;12.40;99.90;;;;;;5048430;28;20044;-77
2024/04/06 05:43:10;;;;;;;16.67;4.47;;;12.40;99.90;;;;;;5046940;28;20049;-78
2024/04/06 05:45:44;;;;;;;12.45;4.35;;;12.40;99.90;;;;;;5044696;28;20120;-78
2024/04/06 05:48:10;;;;;;;11.75;4.07;;;12.40;99.90;;;;;;5042106;28;20036;-77
2024/04/06 05:50:37;;;;;;;11.43;3.95;;;12.50;99.90;;;;;;5041437;28;20041;-77
2024/04/06 05:53:04;;;;;;;11.55;4.78;;;12.50;99.90;;;;;;5043464;28;20048;-77
2024/04/06 05:55:30;;;;;;;11.38;4.13;;;12.40;99.90;;;;;;5043566;28;20072;-77
2024/04/06 05:57:56;;;;;;;11.48;4.80;;;12.40;99.90;;;;;;5043000;28;20029;-78
2024/04/06 06:00:24;;;;;;;13.32;4.22;;;12.50;99.90;;;;;;5043662;28;20033;-77
2024/04/06 06:02:51;;;;;;;11.57;3.95;;;12.50;99.90;;;;;;5041642;28;20417;-78
2024/04/06 06:05:17;;;;;;;11.32;4.22;;;12.50;99.90;;;;;;5050548;28;20102;-78
2024/04/06 06:07:43;;;;;;;10.25;4.20;;;12.60;99.90;;;;;;5046244;28;20045;-78
2024/04/06 06:10:08;;;;;;;11.05;4.55;;;12.50;99.90;;;;;;5050902;28;20044;-77
2024/04/06 06:12:34;;;;;;;9.40;4.50;;;12.60;99.90;;;;;;5046783;28;20123;-78
2024/04/06 06:15:00;;;;;;;13.85;4.30;;;12.70;99.90;;;;;;5051153;28;20066;-78
2024/04/06 06:17:26;;;;;;;10.43;3.80;;;12.60;99.90;;;;;;5050850;28;20041;-77
2024/04/06 06:19:51;;;;;;;17.60;4.75;;;12.60;99.90;;;;;;5051726;28;20540;-77
2024/04/06 06:22:17;;;;;;;9.15;3.92;;;12.70;99.90;;;;;;5050550;28;20041;-78
2024/04/06 06:24:42;;;;;;;12.05;4.72;;;12.70;99.90;;;;;;5042170;28;20053;-78
2024/04/06 06:27:09;;;;;;;16.27;4.70;;;12.70;99.90;;;;;;5047617;28;20037;-78
2024/04/06 06:29:34;;;;;;;10.00;4.95;;;12.70;99.90;;;;;;5048161;28;20045;-78
2024/04/06 06:32:00;;;;;;;8.80;4.00;;;12.80;99.90;;;;;;5045696;28;20033;-78
2024/04/06 06:34:26;;;;;;;12.95;4.65;;;12.90;99.90;;;;;;5041773;28;20228;-77
2024/04/06 06:36:52;;;;;;;10.93;4.50;;;12.90;99.90;;;;;;5039027;28;20043;-78
2024/04/06 06:39:18;;;;;;;7.93;4.65;;;12.90;99.90;;;;;;5041867;28;20437;-78
2024/04/06 06:41:43;;;;;;;17.52;4.68;;;13.00;99.90;;;;;;5040745;28;20033;-78
2024/04/06 06:44:09;;;;;;;8.15;4.60;;;13.10;99.90;;;;;;5043805;28;20041;-77
2024/04/06 06:46:35;;;;;;;11.65;5.00;;;13.10;99.90;;;;;;5043852;28;20070;-78
2024/04/06 06:49:01;;;;;;;15.75;4.68;;;13.10;99.90;;;;;;5040054;28;20526;-77
2024/04/06 06:51:27;;;;;;;14.15;5.05;;;13.20;99.90;;;;;;5039792;28;20048;-78
2024/04/06 06:53:53;;;;;;;11.38;5.13;;;13.20;99.90;;;;;;5038947;28;20095;-78
2024/04/06 06:56:22;;;;;;;8.77;4.55;;;13.30;99.90;;;;;;5039093;28;20069;-77
2024/04/06 06:58:52;;;;;;;17.27;5.03;;;13.30;99.90;;;;;;5041023;28;20044;-77
2024/04/06 07:01:18;;;;;;;9.48;4.47;;;13.30;99.90;;;;;;5041785;28;20045;-77
2024/04/06 07:03:43;;;;;;;12.07;4.30;;;13.40;99.90;;;;;;5048760;28;20378;-78
2024/04/06 07:06:12;;;;;;;9.05;4.45;;;13.40;99.90;;;;;;5051256;28;20039;-78
2024/04/06 07:08:41;;;;;;;9.35;4.45;;;13.40;99.90;;;;;;5046056;28;20045;-77
2024/04/06 07:11:07;;;;;;;7.75;4.10;;;13.50;99.90;;;;;;5050119;28;20441;-77
2024/04/06 07:13:33;;;;;;;14.63;4.82;;;13.50;99.90;;;;;;5045563;28;20045;-77
2024/04/06 07:16:12;;;;;;;11.45;4.38;;;13.50;99.90;;;;;;5051408;28;20036;-77
2024/04/06 07:18:41;;;;;;;11.60;4.05;;;13.60;99.90;;;;;;5028332;28;20123;-78
2024/04/06 07:21:12;;;;;;;10.68;4.25;;;13.60;99.90;;;;;;5045850;28;20398;-77
2024/04/06 07:23:38;;;;;;;11.60;4.47;;;13.60;99.90;;;;;;5045997;28;20037;-77
2024/04/06 07:26:04;;;;;;;13.98;4.30;;;13.60;99.90;;;;;;5048424;28;20044;-77
2024/04/06 07:28:31;;;;;;;9.95;4.30;;;13.70;99.90;;;;;;5042356;28;20123;-77
2024/04/06 07:30:56;;;;;;;8.70;4.32;;;13.70;99.90;;;;;;5045985;28;20045;-77
2024/04/06 07:33:22;;;;;;;8.88;3.88;;;13.80;99.90;;;;;;5049149;28;20049;-77
2024/04/06 07:35:49;;;;;;;9.95;4.10;;;13.90;99.90;;;;;;5042309;28;20037;-77
2024/04/06 07:38:15;;;;;;;14.10;4.10;;;13.90;99.90;;;;;;5043006;28;20044;-77
2024/04/06 07:40:41;;;;;;;13.15;4.35;;;14.00;99.90;;;;;;5047333;28;20037;-77
2024/04/06 07:43:07;;;;;;;15.43;4.07;;;14.10;99.90;;;;;;5048754;28;20082;-78
2024/04/06 07:45:32;;;;;;;12.40;4.03;;;14.10;99.90;;;;;;5048700;28;20041;-78
2024/04/06 07:47:58;;;;;;;11.30;4.15;;;14.20;99.90;;;;;;5050074;28;20481;-77
2024/04/06 07:50:24;;;;;;;12.90;4.45;;;14.30;99.90;;;;;;5043572;28;20474;-78
2024/04/06 07:52:49;;;;;;;10.95;3.97;;;14.30;99.90;;;;;;5042899;28;20029;-77
2024/04/06 07:55:15;;;;;;;9.75;4.28;;;14.40;99.90;;;;;;5049359;28;20072;-78
2024/04/06 07:57:43;;;;;;;9.45;4.32;;;14.50;99.90;;;;;;5048109;28;20481;-78
2024/04/06 08:00:10;;;;;;;14.40;4.10;;;14.60;99.90;;;;;;5049431;28;20072;-78
2024/04/06 08:02:36;;;;;;;12.75;4.40;;;14.70;99.90;;;;;;5048668;28;20041;-78
2024/04/06 08:05:01;;;;;;;7.70;3.60;;;14.70;99.90;;;;;;5048262;28;20087;-78
2024/04/06 08:07:27;;;;;;;11.05;4.13;;;14.80;99.90;;;;;;5045911;28;20037;-78
2024/04/06 08:09:56;;;;;;;;;;;14.90;99.90;;;;;;5050243;28;20398;-78
2024/04/06 08:12:21;;;;;;;;;;;14.90;99.90;;;;;;5045541;28;19921;-78
2024/04/06 08:14:47;;;;;;;11.43;3.67;;;15.00;99.90;;;;;;5047621;28;19916;-78
2024/04/06 08:17:12;;;;;;;11.73;3.92;;;15.00;99.90;;;;;;5045978;28;20111;-78
2024/04/06 08:19:38;;;;;;;10.98;3.90;;;15.10;99.90;;;;;;5049736;28;20044;-78
2024/04/06 08:22:03;;;;;;;10.45;3.83;;;15.10;99.90;;;;;;5050673;28;20072;-78
2024/04/06 08:24:29;;;;;;;17.33;4.03;;;15.20;99.90;;;;;;5048996;28;20037;-78
2024/04/06 08:26:55;;;;;;;;;;;15.40;99.90;;;;;;5050051;28;20032;-78
2024/04/06 08:29:21;;;;;;;;;;;15.50;99.90;;;;;;5041217;28;19917;-78
2024/04/06 08:31:47;;;;;;;15.15;3.53;;;15.60;99.90;;;;;;5047623;28;19936;-78
2024/04/06 08:34:13;;;;;;;14.93;3.50;;;15.60;99.90;;;;;;5067850;28;20040;-78
2024/04/06 08:36:38;;;;;;;12.85;3.55;;;15.70;99.90;;;;;;5050222;28;20115;-78
2024/04/06 08:39:04;;;;;;;9.27;3.47;;;15.80;99.90;;;;;;5053134;28;20462;-78
2024/04/06 08:41:30;;;;;;;12.07;3.80;;;15.80;99.90;;;;;;5050522;28;20171;-78
2024/04/06 08:43:58;;;;;;;10.10;3.17;;;15.90;99.90;;;;;;5053088;28;20082;-78
2024/04/06 08:46:23;;;;;;;11.95;3.50;;;15.90;99.90;;;;;;5052786;28;20040;-78
2024/04/06 08:48:50;;;;;;;8.85;3.40;;;15.90;99.90;;;;;;5047832;28;20152;-78
2024/04/06 08:51:20;;;;;;;10.85;3.15;;;15.90;99.90;;;;;;5048361;28;20391;-78
2024/04/06 08:53:46;;;;;;;10.25;3.17;;;16.00;99.90;;;;;;5051160;28;20036;-78
2024/04/06 08:56:15;;;;;;;16.55;3.45;;;15.90;99.90;;;;;;5053804;28;20136;-78
2024/04/06 08:58:41;;;;;;;15.95;4.07;;;16.00;99.90;;;;;;5051982;28;20045;-78
2024/04/06 09:01:07;;;;;;;7.85;2.90;;;16.10;99.90;;;;;;5047488;28;20085;-78
2024/04/06 09:03:33;;;;;;;;;;;16.20;99.90;;;;;;5043386;28;20037;-78
2024/04/06 09:05:58;;;;;;;;;;;16.40;99.90;;;;;;5052741;28;19921;-78
2024/04/06 09:08:24;;;;;;;;;;;16.50;99.90;;;;;;5050723;28;19921;-78
2024/04/06 09:10:57;;;;;;;;;;;16.70;99.90;;;;;;5032459;28;19924;-78
2024/04/06 09:13:23;;;;;;;7.97;3.03;;;16.80;99.90;;;;;;5062655;28;19928;-78
2024/04/06 09:15:48;;;;;;;9.93;2.85;;;17.10;99.90;;;;;;5053521;28;20036;-78
2024/04/06 09:18:15;;;;;;;8.60;2.80;;;17.30;99.90;;;;;;5044225;28;20296;-78
2024/04/06 09:20:41;;;;;;;;;;;17.40;99.90;;;;;;5049486;28;20409;-78
2024/04/06 09:23:07;;;;;;;7.00;2.85;;;17.60;99.90;;;;;;5046130;28;19925;-78
2024/04/06 09:25:33;;;;;;;7.60;2.80;;;17.80;99.90;;;;;;5043217;28;20088;-78
2024/04/06 09:27:59;;;;;;;8.90;2.53;;;18.00;99.90;;;;;;5045460;28;20523;-78
2024/04/06 09:30:34;;;;;;;10.32;2.78;;;18.20;99.90;;;;;;5049248;28;20045;-78
2024/04/06 09:33:03;;;;;;;8.13;2.60;;;18.30;99.90;;;;;;5051915;28;20444;-78
2024/04/06 09:35:30;;;;;;;8.10;2.63;;;18.40;99.90;;;;;;5041326;28;20449;-78
2024/04/06 09:37:56;;;;;;;4.88;2.17;;;18.40;99.90;;;;;;5052463;28;20041;-78
2024/04/06 09:40:23;;;;;;;6.20;1.95;;;18.50;99.90;;;;;;5039134;28;20053;-78
2024/04/06 09:42:49;;;;;;;10.35;3.05;;;18.80;99.90;;;;;;5050734;28;20494;-78
2024/04/06 09:45:16;;;;;;;7.88;2.40;;;19.00;99.90;;;;;;5043768;28;20061;-78
2024/04/06 09:47:43;;;;;;;9.85;2.42;;;19.20;99.90;;;;;;5038430;28;20050;-78
2024/04/06 09:50:09;;;;;;;6.63;2.47;;;19.30;99.90;;;;;;5037085;28;20046;-78
2024/04/06 09:52:35;;;;;;;8.77;2.30;;;19.40;99.90;;;;;;5042828;28;20378;-78
2024/04/06 09:55:02;;;;;;;;;;;19.50;99.90;;;;;;5052428;28;20045;-78
2024/04/06 09:57:27;;;;;;;7.35;2.80;;;19.70;99.90;;;;;;5051436;28;19923;-78
2024/04/06 10:00:07;;;;;;;11.68;2.50;;;19.80;99.90;;;;;;5048579;28;20108;-78
2024/04/06 10:02:33;;;;;;;6.43;2.10;;;19.90;99.90;;;;;;5041021;28;20047;-78
2024/04/06 10:05:05;;;;;;;;;;;20.10;99.90;;;;;;5052950;28;20120;-78
2024/04/06 10:07:33;;;;;;;7.82;2.30;;;20.20;99.90;;;;;;5046811;28;19921;-78
2024/04/06 10:10:00;;;;;;;10.63;2.88;;;20.40;99.90;;;;;;5050429;28;20051;-78
2024/04/06 10:12:46;;;;;;;9.77;2.88;;;20.60;99.90;;;;;;5044778;28;20044;-79
2024/04/06 10:15:21;;;;;;;4.32;2.22;;;20.60;99.90;;;;;;5044961;28;20051;-78
2024/04/06 10:17:48;;;;;;;7.72;2.67;;;20.70;99.90;;;;;;5045274;28;20045;-79
2024/04/06 10:20:27;;;;;;;11.73;2.67;;;20.70;99.90;;;;;;5045362;28;20132;-78
2024/04/06 10:22:59;;;;;;;4.32;2.20;;;20.70;99.90;;;;;;5037540;28;20038;-78
2024/04/06 10:25:34;;;;;;;6.68;2.47;;;20.70;99.90;;;;;;5048986;28;20037;-78
2024/04/06 10:28:10;;;;;;;10.98;2.60;;;20.80;99.90;;;;;;5039063;28;20029;-78
2024/04/06 10:30:38;;;;;;;8.02;2.55;;;20.80;99.90;;;;;;5042178;28;20044;-79
2024/04/06 10:33:05;;;;;;;7.68;2.42;;;20.80;99.90;;;;;;5045069;28;20033;-79
2024/04/06 10:35:31;;;;;;;7.60;2.50;;;20.80;99.90;;;;;;5045266;28;20041;-78
2024/04/06 10:37:57;;;;;;;9.13;2.50;;;20.90;99.90;;;;;;5049471;28;20044;-78
2024/04/06 10:40:37;;;;;;;8.05;2.30;;;20.90;99.90;;;;;;5045888;28;20485;-78
2024/04/06 10:43:03;;;;;;;8.77;2.42;;;20.90;99.90;;;;;;5048858;28;20175;-78
2024/04/06 10:45:28;;;;;;;9.23;2.60;;;20.80;99.90;;;;;;5036720;28;20048;-78
2024/04/06 10:47:54;;;;;;;7.68;2.50;;;20.90;99.90;;;;;;5047506;28;20037;-79
2024/04/06 10:50:20;;;;;;;6.63;2.40;;;20.90;99.90;;;;;;5051918;28;20401;-79
2024/04/06 10:52:47;;;;;;;9.02;2.35;;;20.90;99.90;;;;;;5044970;28;20132;-79
2024/04/06 10:55:19;;;;;;;8.02;2.35;;;20.90;99.90;;;;;;5038294;28;20059;-79
2024/04/06 10:57:44;;;;;;;;;;;20.90;99.90;;;;;;5040186;28;20468;-79
2024/04/06 11:00:12;;;;;;;8.85;2.30;;;20.80;99.90;;;;;;5041511;28;20008;-79
2024/04/06 11:02:38;;;;;;;9.13;2.40;;;20.80;99.90;;;;;;5046505;28;20056;-79
2024/04/06 11:05:08;;;;;;;6.78;2.63;;;20.80;99.90;;;;;;5036355;28;20045;-79
2024/04/06 11:07:35;;;;;;;6.43;2.20;;;20.90;99.90;;;;;;5065012;28;20460;-79
2024/04/06 11:10:01;;;;;;;12.10;2.72;;;20.90;99.90;;;;;;5046542;28;20394;-78
2024/04/06 11:12:28;;;;;;;7.35;2.03;;;20.90;99.90;;;;;;5048882;28;20048;-78
2024/04/06 11:14:53;;;;;;;6.03;2.20;;;21.10;99.90;;;;;;5038691;28;20064;-78
2024/04/06 11:17:19;;;;;;;4.13;2.20;;;21.20;99.90;;;;;;5044454;28;20040;-78
2024/04/06 11:19:51;;;;;;;6.32;2.13;;;21.30;99.90;;;;;;5046733;28;20045;-78
2024/04/06 11:22:17;;;;;;;4.65;2.10;;;21.30;99.90;;;;;;5032519;28;20076;-78
2024/04/06 11:24:42;;;;;;;9.90;2.67;;;21.40;99.90;;;;;;5045610;28;20061;-78
2024/04/06 11:27:08;;;;;;;8.90;2.63;;;21.30;99.90;;;;;;5045890;28;20044;-78
2024/04/06 11:29:34;;;;;;;7.10;2.20;;;21.30;99.90;;;;;;5043763;28;20509;-78
2024/04/06 11:31:59;;;;;;;10.10;2.30;;;21.30;99.90;;;;;;5048515;28;20048;-78
2024/04/06 11:34:25;;;;;;;8.32;2.17;;;21.30;99.90;;;;;;5041869;28;20120;-78
2024/04/06 11:36:51;;;;;;;6.32;2.35;;;21.40;99.90;;;;;;5050594;28;20064;-78
2024/04/06 11:39:16;;;;;;;10.35;2.33;;;21.40;99.90;;;;;;5041426;28;20033;-78
2024/04/06 11:41:42;;;;;;;8.63;2.47;;;21.40;99.90;;;;;;5046464;28;20040;-78
2024/04/06 11:44:07;;;;;;;8.00;2.65;;;21.40;99.90;;;;;;5050497;28;20396;-78
2024/04/06 11:46:34;;;;;;;6.85;2.30;;;21.30;99.90;;;;;;5046625;28;20076;-78
2024/04/06 11:49:03;;;;;;;5.97;2.22;;;21.30;99.90;;;;;;5047570;28;20041;-78
2024/04/06 11:51:29;;;;;;;7.57;2.47;;;21.20;99.90;;;;;;5037278;28;20040;-78
2024/04/06 11:53:54;;;;;;;7.50;2.10;;;21.20;99.90;;;;;;5049059;28;20044;-78
2024/04/06 11:56:20;;;;;;;5.75;2.53;;;21.20;99.90;;;;;;5050849;28;20029;-78
2024/04/06 11:58:47;;;;;;;13.45;2.67;;;21.40;99.90;;;;;;5047032;28;20045;-78
2024/04/06 12:01:12;;;;;;;9.13;2.55;;;21.40;99.90;;;;;;5045187;28;20548;-78
2024/04/06 12:03:38;;;;;;;8.40;2.40;;;21.50;99.90;;;;;;5048644;28;20182;-78
2024/04/06 12:06:04;;;;;;;9.27;2.22;;;21.70;99.90;;;;;;5042387;28;20036;-78
2024/04/06 12:08:29;;;;;;;5.47;2.20;;;21.70;99.90;;;;;;5050876;28;20037;-78
2024/04/06 12:10:55;;;;;;;9.50;2.05;;;21.70;99.90;;;;;;5048533;28;20072;-78
2024/04/06 12:13:21;;;;;;;8.95;2.47;;;21.80;99.90;;;;;;5050043;28;20045;-78
2024/04/06 12:15:47;;;;;;;6.25;2.03;;;21.80;99.90;;;;;;5051419;28;20501;-78
2024/04/06 12:18:12;;;;;;;8.13;2.13;;;21.80;99.90;;;;;;5048786;28;20033;-78
2024/04/06 12:20:39;;;;;;;8.07;2.10;;;21.80;99.90;;;;;;5051038;28;20099;-78
2024/04/06 12:23:04;;;;;;;8.23;2.20;;;21.80;99.90;;;;;;5050258;28;20084;-78
2024/04/06 12:25:30;;;;;;;8.10;2.20;;;21.90;99.90;;;;;;5049957;28;20481;-78
2024/04/06 12:27:56;;;;;;;5.22;2.50;;;21.80;99.90;;;;;;5054587;28;20037;-78
2024/04/06 12:30:21;;;;;;;7.70;2.17;;;21.90;99.90;;;;;;5050441;28;20090;-78
2024/04/06 12:32:47;;;;;;;8.30;2.13;;;21.90;99.90;;;;;;5045176;28;20045;-78
2024/04/06 12:35:13;;;;;;;13.48;2.58;;;21.90;99.90;;;;;;5048949;28;20037;-78
2024/04/06 12:37:38;;;;;;;7.82;2.30;;;21.90;99.90;;;;;;5053653;28;20072;-78
2024/04/06 12:40:04;;;;;;;10.90;2.47;;;21.90;99.90;;;;;;5048956;28;20443;-78